sensor_id;sensor_type;location;lat;lon;timestamp;pressure;altitude;pressure_sealevel;temperature;humidity
49779;BME280;36217;60.232;24.776;2023-02-16T00:02:29;101665.46;;;1.34;100.00
49779;BME280;36217;60.232;24.776;2023-02-16T00:05:10;101660.36;;;1.34;100.00
49779;BME280;36217;60.232;24.776;2023-02-16T00:07:59;101656.97;;;1.37;100.00
49779;BME280;36217;60.232;24.776;2023-02-16T00:10:38;101660.07;;;1.33;100.00
49779;BME280;36217;60.232;24.776;2023-02-16T00:13:26;101657.92;;;1.34;100.00
49779;BME280;36217;60.232;24.776;2023-02-16T00:16:06;101654.94;;;1.30;100.00
49779;BME280;36217;60.232;24.776;2023-02-16T00:18:48;101652.47;;;0.97;100.00
49779;BME280;36217;60.232;24.776;2023-02-16T00:21:25;101653.01;;;1.37;100.00
49779;BME280;36217;60.232;24.776;2023-02-16T00:24:01;101651.11;;;1.23;100.00
49779;BME280;36217;60.232;24.776;2023-02-16T00:26:39;101645.17;;;1.51;100.00
49779;BME280;36217;60.232;24.776;2023-02-16T00:29:22;101643.11;;;1.37;100.00
49779;BME280;36217;60.232;24.776;2023-02-16T00:32:02;101642.73;;;1.36;100.00
49779;BME280;36217;60.232;24.776;2023-02-16T00:34:40;101641.36;;;1.31;100.00
49779;BME280;36217;60.232;24.776;2023-02-16T00:37:17;101637.34;;;1.20;100.00
49779;BME280;36217;60.232;24.776;2023-02-16T00:39:55;101632.49;;;1.29;100.00
49779;BME280;36217;60.232;24.776;2023-02-16T00:42:33;101629.26;;;1.36;100.00
49779;BME280;36217;60.232;24.776;2023-02-16T00:45:17;101627.68;;;1.38;100.00
49779;BME280;36217;60.232;24.776;2023-02-16T00:48:04;101624.19;;;1.37;100.00
49779;BME280;36217;60.232;24.776;2023-02-16T00:50:41;101617.70;;;1.34;100.00
49779;BME280;36217;60.232;24.776;2023-02-16T00:53:18;101614.50;;;1.36;100.00
49779;BME280;36217;60.232;24.776;2023-02-16T00:55:55;101609.88;;;1.34;100.00
49779;BME280;36217;60.232;24.776;2023-02-16T00:58:34;101606.91;;;1.44;100.00
49779;BME280;36217;60.232;24.776;2023-02-16T01:01:13;101605.10;;;1.18;100.00
49779;BME280;36217;60.232;24.776;2023-02-16T01:03:50;101599.15;;;1.24;100.00
49779;BME280;36217;60.232;24.776;2023-02-16T01:06:27;101594.78;;;1.26;100.00
49779;BME280;36217;60.232;24.776;2023-02-16T01:09:11;101588.92;;;1.43;100.00
49779;BME280;36217;60.232;24.776;2023-02-16T01:11:47;101588.62;;;1.22;100.00
49779;BME280;36217;60.232;24.776;2023-02-16T01:14:24;101587.24;;;1.31;100.00
49779;BME280;36217;60.232;24.776;2023-02-16T01:17:02;101585.13;;;1.10;100.00
49779;BME280;36217;60.232;24.776;2023-02-16T01:19:39;101586.62;;;1.27;100.00
49779;BME280;36217;60.232;24.776;2023-02-16T01:22:16;101580.59;;;1.23;100.00
49779;BME280;36217;60.232;24.776;2023-02-16T01:24:53;101580.53;;;1.30;100.00
49779;BME280;36217;60.232;24.776;2023-02-16T01:27:30;101576.78;;;1.38;100.00
49779;BME280;36217;60.232;24.776;2023-02-16T01:30:11;101570.25;;;1.49;100.00
49779;BME280;36217;60.232;24.776;2023-02-16T01:32:48;101570.49;;;1.57;100.00
49779;BME280;36217;60.232;24.776;2023-02-16T01:35:38;101568.06;;;1.59;100.00
49779;BME280;36217;60.232;24.776;2023-02-16T01:38:19;101563.57;;;1.32;100.00
49779;BME280;36217;60.232;24.776;2023-02-16T01:41:03;101556.16;;;1.15;100.00
49779;BME280;36217;60.232;24.776;2023-02-16T01:43:49;101555.69;;;1.49;100.00
49779;BME280;36217;60.232;24.776;2023-02-16T01:46:35;101553.06;;;1.13;100.00
49779;BME280;36217;60.232;24.776;2023-02-16T01:49:17;101556.90;;;1.35;100.00
49779;BME280;36217;60.232;24.776;2023-02-16T01:51:59;101554.31;;;1.38;100.00
49779;BME280;36217;60.232;24.776;2023-02-16T01:54:43;101552.15;;;1.26;100.00
49779;BME280;36217;60.232;24.776;2023-02-16T01:57:29;101548.99;;;1.42;100.00
49779;BME280;36217;60.232;24.776;2023-02-16T02:00:14;101545.53;;;1.13;100.00
49779;BME280;36217;60.232;24.776;2023-02-16T02:02:54;101545.13;;;1.14;100.00
49779;BME280;36217;60.232;24.776;2023-02-16T02:05:33;101541.00;;;1.16;100.00
49779;BME280;36217;60.232;24.776;2023-02-16T02:08:18;101536.69;;;1.21;100.00
49779;BME280;36217;60.232;24.776;2023-02-16T02:11:04;101532.60;;;1.20;100.00
49779;BME280;36217;60.232;24.776;2023-02-16T02:13:46;101530.85;;;1.14;100.00
49779;BME280;36217;60.232;24.776;2023-02-16T02:16:27;101532.92;;;1.09;100.00
49779;BME280;36217;60.232;24.776;2023-02-16T02:19:05;101531.38;;;1.12;100.00
49779;BME280;36217;60.232;24.776;2023-02-16T02:22:02;101525.33;;;1.03;100.00
49779;BME280;36217;60.232;24.776;2023-02-16T02:25:18;101523.85;;;1.57;100.00
49779;BME280;36217;60.232;24.776;2023-02-16T02:28:04;101517.09;;;1.47;100.00
49779;BME280;36217;60.232;24.776;2023-02-16T02:30:51;101514.47;;;1.49;100.00
49779;BME280;36217;60.232;24.776;2023-02-16T02:33:41;101514.01;;;1.41;100.00
49779;BME280;36217;60.232;24.776;2023-02-16T02:36:25;101513.23;;;1.20;100.00
49779;BME280;36217;60.232;24.776;2023-02-16T02:39:16;101511.27;;;1.31;100.00
49779;BME280;36217;60.232;24.776;2023-02-16T02:41:59;101508.61;;;1.08;100.00
49779;BME280;36217;60.232;24.776;2023-02-16T02:44:43;101507.40;;;1.64;100.00
49779;BME280;36217;60.232;24.776;2023-02-16T02:47:23;101499.82;;;1.31;100.00
49779;BME280;36217;60.232;24.776;2023-02-16T02:50:48;101498.47;;;1.29;100.00
49779;BME280;36217;60.232;24.776;2023-02-16T02:53:26;101493.48;;;1.28;100.00
49779;BME280;36217;60.232;24.776;2023-02-16T02:56:05;101494.81;;;0.99;100.00
49779;BME280;36217;60.232;24.776;2023-02-16T02:58:44;101493.05;;;1.50;100.00
49779;BME280;36217;60.232;24.776;2023-02-16T03:01:26;101493.01;;;1.35;100.00
49779;BME280;36217;60.232;24.776;2023-02-16T03:04:04;101488.37;;;1.51;100.00
49779;BME280;36217;60.232;24.776;2023-02-16T03:06:45;101487.33;;;1.30;100.00
49779;BME280;36217;60.232;24.776;2023-02-16T03:09:24;101487.45;;;1.22;100.00
49779;BME280;36217;60.232;24.776;2023-02-16T03:12:02;101481.47;;;1.42;100.00
49779;BME280;36217;60.232;24.776;2023-02-16T03:14:41;101473.19;;;1.20;100.00
49779;BME280;36217;60.232;24.776;2023-02-16T03:17:24;101472.93;;;1.34;100.00
49779;BME280;36217;60.232;24.776;2023-02-16T03:20:06;101471.84;;;1.31;100.00
49779;BME280;36217;60.232;24.776;2023-02-16T03:22:44;101469.04;;;1.56;100.00
49779;BME280;36217;60.232;24.776;2023-02-16T03:25:34;101465.14;;;1.52;100.00
49779;BME280;36217;60.232;24.776;2023-02-16T03:28:14;101461.85;;;1.24;100.00
49779;BME280;36217;60.232;24.776;2023-02-16T03:30:54;101456.63;;;1.27;100.00
49779;BME280;36217;60.232;24.776;2023-02-16T03:33:33;101451.64;;;1.40;100.00
49779;BME280;36217;60.232;24.776;2023-02-16T03:36:11;101448.87;;;1.27;100.00
49779;BME280;36217;60.232;24.776;2023-02-16T03:38:48;101444.69;;;1.39;100.00
49779;BME280;36217;60.232;24.776;2023-02-16T03:41:25;101442.64;;;1.45;100.00
49779;BME280;36217;60.232;24.776;2023-02-16T03:44:03;101440.32;;;1.20;100.00
49779;BME280;36217;60.232;24.776;2023-02-16T03:46:40;101437.51;;;1.14;100.00
49779;BME280;36217;60.232;24.776;2023-02-16T03:49:27;101434.24;;;1.03;100.00
49779;BME280;36217;60.232;24.776;2023-02-16T03:52:04;101428.29;;;1.09;100.00
49779;BME280;36217;60.232;24.776;2023-02-16T03:54:41;101426.53;;;1.29;100.00
49779;BME280;36217;60.232;24.776;2023-02-16T03:57:18;101421.56;;;1.51;100.00
49779;BME280;36217;60.232;24.776;2023-02-16T03:59:54;101420.23;;;1.13;100.00
49779;BME280;36217;60.232;24.776;2023-02-16T04:02:32;101420.32;;;1.37;100.00
49779;BME280;36217;60.232;24.776;2023-02-16T04:05:09;101415.79;;;1.47;100.00
49779;BME280;36217;60.232;24.776;2023-02-16T04:07:46;101416.43;;;1.00;100.00
49779;BME280;36217;60.232;24.776;2023-02-16T04:10:23;101417.86;;;1.13;100.00
49779;BME280;36217;60.232;24.776;2023-02-16T04:13:00;101414.95;;;1.21;100.00
49779;BME280;36217;60.232;24.776;2023-02-16T04:15:37;101416.87;;;1.21;100.00
49779;BME280;36217;60.232;24.776;2023-02-16T04:18:15;101414.26;;;1.23;100.00
49779;BME280;36217;60.232;24.776;2023-02-16T04:20:51;101410.32;;;1.37;100.00
49779;BME280;36217;60.232;24.776;2023-02-16T04:23:28;101406.07;;;1.45;100.00
49779;BME280;36217;60.232;24.776;2023-02-16T04:26:05;101401.02;;;1.44;100.00
49779;BME280;36217;60.232;24.776;2023-02-16T04:28:41;101400.06;;;1.31;100.00
49779;BME280;36217;60.232;24.776;2023-02-16T04:31:18;101393.63;;;1.34;100.00
49779;BME280;36217;60.232;24.776;2023-02-16T04:33:55;101392.46;;;1.44;100.00
49779;BME280;36217;60.232;24.776;2023-02-16T04:36:32;101395.38;;;1.11;100.00
49779;BME280;36217;60.232;24.776;2023-02-16T04:39:09;101394.68;;;1.18;100.00
49779;BME280;36217;60.232;24.776;2023-02-16T04:41:46;101390.94;;;1.25;100.00
49779;BME280;36217;60.232;24.776;2023-02-16T04:44:23;101390.93;;;1.10;100.00
49779;BME280;36217;60.232;24.776;2023-02-16T04:47:00;101389.31;;;1.07;100.00
49779;BME280;36217;60.232;24.776;2023-02-16T04:49:47;101388.53;;;1.12;100.00
49779;BME280;36217;60.232;24.776;2023-02-16T04:52:24;101390.80;;;1.38;100.00
49779;BME280;36217;60.232;24.776;2023-02-16T04:55:02;101389.96;;;1.38;100.00
49779;BME280;36217;60.232;24.776;2023-02-16T04:57:39;101389.15;;;1.23;100.00
49779;BME280;36217;60.232;24.776;2023-02-16T05:00:17;101382.12;;;1.28;100.00
49779;BME280;36217;60.232;24.776;2023-02-16T05:02:54;101379.44;;;1.30;100.00
49779;BME280;36217;60.232;24.776;2023-02-16T05:05:32;101376.04;;;1.35;100.00
49779;BME280;36217;60.232;24.776;2023-02-16T05:08:09;101373.16;;;1.11;100.00
49779;BME280;36217;60.232;24.776;2023-02-16T05:10:46;101365.73;;;1.44;100.00
49779;BME280;36217;60.232;24.776;2023-02-16T05:13:23;101364.52;;;1.25;100.00
49779;BME280;36217;60.232;24.776;2023-02-16T05:16:00;101361.04;;;1.02;100.00
49779;BME280;36217;60.232;24.776;2023-02-16T05:18:37;101358.93;;;1.43;100.00
49779;BME280;36217;60.232;24.776;2023-02-16T05:21:14;101357.65;;;1.21;100.00
49779;BME280;36217;60.232;24.776;2023-02-16T05:23:50;101350.22;;;1.38;100.00
49779;BME280;36217;60.232;24.776;2023-02-16T05:26:28;101348.56;;;1.46;100.00
49779;BME280;36217;60.232;24.776;2023-02-16T05:29:05;101345.38;;;1.33;100.00
49779;BME280;36217;60.232;24.776;2023-02-16T05:31:43;101345.99;;;1.39;100.00
49779;BME280;36217;60.232;24.776;2023-02-16T05:34:19;101341.88;;;1.24;100.00
49779;BME280;36217;60.232;24.776;2023-02-16T05:36:56;101337.42;;;1.20;100.00
49779;BME280;36217;60.232;24.776;2023-02-16T05:39:44;101334.59;;;1.32;100.00
49779;BME280;36217;60.232;24.776;2023-02-16T05:42:21;101330.36;;;1.20;100.00
49779;BME280;36217;60.232;24.776;2023-02-16T05:44:57;101327.26;;;1.15;100.00
49779;BME280;36217;60.232;24.776;2023-02-16T05:47:34;101324.87;;;1.43;100.00
49779;BME280;36217;60.232;24.776;2023-02-16T05:50:11;101325.58;;;1.29;100.00
49779;BME280;36217;60.232;24.776;2023-02-16T05:52:49;101322.15;;;1.26;100.00
49779;BME280;36217;60.232;24.776;2023-02-16T05:55:26;101315.29;;;1.17;100.00
49779;BME280;36217;60.232;24.776;2023-02-16T05:58:04;101315.09;;;1.55;100.00
49779;BME280;36217;60.232;24.776;2023-02-16T06:00:41;101315.61;;;1.22;100.00
49779;BME280;36217;60.232;24.776;2023-02-16T06:03:17;101318.82;;;1.43;100.00
49779;BME280;36217;60.232;24.776;2023-02-16T06:05:57;101317.56;;;1.16;100.00
49779;BME280;36217;60.232;24.776;2023-02-16T06:08:35;101318.07;;;1.23;100.00
49779;BME280;36217;60.232;24.776;2023-02-16T06:11:12;101317.57;;;1.26;100.00
49779;BME280;36217;60.232;24.776;2023-02-16T06:13:49;101316.98;;;1.14;100.00
49779;BME280;36217;60.232;24.776;2023-02-16T06:16:26;101313.17;;;1.01;100.00
49779;BME280;36217;60.232;24.776;2023-02-16T06:19:04;101314.00;;;1.30;100.00
49779;BME280;36217;60.232;24.776;2023-02-16T06:21:42;101313.94;;;1.34;100.00
49779;BME280;36217;60.232;24.776;2023-02-16T06:24:20;101315.60;;;1.20;100.00
49779;BME280;36217;60.232;24.776;2023-02-16T06:26:56;101313.83;;;1.56;100.00
49779;BME280;36217;60.232;24.776;2023-02-16T06:29:33;101309.52;;;1.47;100.00
49779;BME280;36217;60.232;24.776;2023-02-16T06:32:10;101310.71;;;1.48;100.00
49779;BME280;36217;60.232;24.776;2023-02-16T06:34:57;101312.89;;;1.62;100.00
49779;BME280;36217;60.232;24.776;2023-02-16T06:37:34;101302.75;;;1.18;100.00
49779;BME280;36217;60.232;24.776;2023-02-16T06:40:12;101303.58;;;1.05;100.00
49779;BME280;36217;60.232;24.776;2023-02-16T06:42:49;101295.80;;;1.55;100.00
49779;BME280;36217;60.232;24.776;2023-02-16T06:45:26;101297.47;;;1.00;100.00
49779;BME280;36217;60.232;24.776;2023-02-16T06:48:03;101295.17;;;1.56;100.00
49779;BME280;36217;60.232;24.776;2023-02-16T06:50:40;101294.04;;;1.11;100.00
49779;BME280;36217;60.232;24.776;2023-02-16T06:53:17;101295.90;;;1.28;100.00
49779;BME280;36217;60.232;24.776;2023-02-16T06:55:54;101296.39;;;1.56;100.00
49779;BME280;36217;60.232;24.776;2023-02-16T06:58:31;101299.47;;;1.10;100.00
49779;BME280;36217;60.232;24.776;2023-02-16T07:01:08;101296.97;;;1.33;100.00
49779;BME280;36217;60.232;24.776;2023-02-16T07:03:45;101291.40;;;1.35;100.00
49779;BME280;36217;60.232;24.776;2023-02-16T07:06:24;101293.81;;;1.62;100.00
49779;BME280;36217;60.232;24.776;2023-02-16T07:09:03;101289.80;;;1.48;100.00
49779;BME280;36217;60.232;24.776;2023-02-16T07:11:40;101291.30;;;1.55;100.00
49779;BME280;36217;60.232;24.776;2023-02-16T07:14:17;101293.54;;;1.55;100.00
49779;BME280;36217;60.232;24.776;2023-02-16T07:16:54;101293.38;;;1.42;100.00
49779;BME280;36217;60.232;24.776;2023-02-16T07:19:31;101292.35;;;1.54;100.00
49779;BME280;36217;60.232;24.776;2023-02-16T07:22:08;101289.00;;;1.62;100.00
49779;BME280;36217;60.232;24.776;2023-02-16T07:24:44;101288.35;;;1.18;100.00
49779;BME280;36217;60.232;24.776;2023-02-16T07:27:21;101290.74;;;1.29;100.00
49779;BME280;36217;60.232;24.776;2023-02-16T07:29:59;101287.44;;;1.55;100.00
49779;BME280;36217;60.232;24.776;2023-02-16T07:32:46;101282.38;;;1.23;100.00
49779;BME280;36217;60.232;24.776;2023-02-16T07:35:24;101286.05;;;1.47;100.00
49779;BME280;36217;60.232;24.776;2023-02-16T07:38:00;101285.17;;;1.63;100.00
49779;BME280;36217;60.232;24.776;2023-02-16T07:40:38;101287.03;;;1.55;100.00
49779;BME280;36217;60.232;24.776;2023-02-16T07:43:15;101282.23;;;1.16;100.00
49779;BME280;36217;60.232;24.776;2023-02-16T07:45:52;101279.59;;;1.28;100.00
49779;BME280;36217;60.232;24.776;2023-02-16T07:48:30;101274.58;;;1.81;100.00
49779;BME280;36217;60.232;24.776;2023-02-16T07:51:07;101274.78;;;1.53;100.00
49779;BME280;36217;60.232;24.776;2023-02-16T07:53:44;101274.94;;;1.48;100.00
49779;BME280;36217;60.232;24.776;2023-02-16T07:56:26;101270.49;;;1.47;100.00
49779;BME280;36217;60.232;24.776;2023-02-16T07:59:04;101269.77;;;1.49;100.00
49779;BME280;36217;60.232;24.776;2023-02-16T08:01:41;101268.80;;;1.76;100.00
49779;BME280;36217;60.232;24.776;2023-02-16T08:04:18;101266.67;;;1.68;100.00
49779;BME280;36217;60.232;24.776;2023-02-16T08:06:55;101264.91;;;1.56;100.00
49779;BME280;36217;60.232;24.776;2023-02-16T08:09:32;101264.66;;;1.69;100.00
49779;BME280;36217;60.232;24.776;2023-02-16T08:12:09;101259.02;;;1.13;100.00
49779;BME280;36217;60.232;24.776;2023-02-16T08:14:46;101257.33;;;1.32;100.00
49779;BME280;36217;60.232;24.776;2023-02-16T08:17:24;101258.97;;;1.21;100.00
49779;BME280;36217;60.232;24.776;2023-02-16T08:20:01;101258.49;;;1.44;100.00
49779;BME280;36217;60.232;24.776;2023-02-16T08:22:39;101255.59;;;1.58;100.00
49779;BME280;36217;60.232;24.776;2023-02-16T08:25:16;101255.77;;;1.92;100.00
49779;BME280;36217;60.232;24.776;2023-02-16T08:27:53;101258.01;;;1.61;100.00
49779;BME280;36217;60.232;24.776;2023-02-16T08:30:31;101258.45;;;1.67;100.00
49779;BME280;36217;60.232;24.776;2023-02-16T08:33:17;101255.57;;;1.63;100.00
49779;BME280;36217;60.232;24.776;2023-02-16T08:35:54;101248.42;;;1.91;100.00
49779;BME280;36217;60.232;24.776;2023-02-16T08:38:31;101248.05;;;1.61;100.00
49779;BME280;36217;60.232;24.776;2023-02-16T08:41:08;101245.57;;;1.62;100.00
49779;BME280;36217;60.232;24.776;2023-02-16T08:43:46;101243.19;;;1.49;100.00
49779;BME280;36217;60.232;24.776;2023-02-16T08:46:23;101241.48;;;1.36;100.00
49779;BME280;36217;60.232;24.776;2023-02-16T08:49:00;101241.71;;;1.64;100.00
49779;BME280;36217;60.232;24.776;2023-02-16T08:51:40;101240.63;;;1.64;100.00
49779;BME280;36217;60.232;24.776;2023-02-16T08:54:20;101237.13;;;1.98;100.00
49779;BME280;36217;60.232;24.776;2023-02-16T08:56:58;101235.82;;;1.47;100.00
49779;BME280;36217;60.232;24.776;2023-02-16T08:59:35;101229.61;;;1.50;100.00
49779;BME280;36217;60.232;24.776;2023-02-16T09:02:14;101222.86;;;1.46;100.00
49779;BME280;36217;60.232;24.776;2023-02-16T09:04:51;101223.15;;;1.62;100.00
49779;BME280;36217;60.232;24.776;2023-02-16T09:07:28;101220.78;;;1.69;100.00
49779;BME280;36217;60.232;24.776;2023-02-16T09:10:05;101218.68;;;1.51;100.00
49779;BME280;36217;60.232;24.776;2023-02-16T09:12:42;101216.52;;;1.70;100.00
49779;BME280;36217;60.232;24.776;2023-02-16T09:15:19;101215.76;;;1.75;100.00
49779;BME280;36217;60.232;24.776;2023-02-16T09:17:56;101210.38;;;1.51;100.00
49779;BME280;36217;60.232;24.776;2023-02-16T09:20:33;101215.00;;;1.49;100.00
49779;BME280;36217;60.232;24.776;2023-02-16T09:23:12;101208.95;;;1.98;100.00
49779;BME280;36217;60.232;24.776;2023-02-16T09:25:59;101205.63;;;1.49;100.00
49779;BME280;36217;60.232;24.776;2023-02-16T09:28:36;101200.47;;;1.80;100.00
49779;BME280;36217;60.232;24.776;2023-02-16T09:31:14;101206.61;;;1.71;100.00
49779;BME280;36217;60.232;24.776;2023-02-16T09:33:54;101195.19;;;2.03;100.00
49779;BME280;36217;60.232;24.776;2023-02-16T09:36:31;101196.01;;;1.54;100.00
49779;BME280;36217;60.232;24.776;2023-02-16T09:39:08;101199.62;;;1.83;100.00
49779;BME280;36217;60.232;24.776;2023-02-16T09:41:59;101192.70;;;1.80;100.00
49779;BME280;36217;60.232;24.776;2023-02-16T09:44:46;101189.68;;;1.83;100.00
49779;BME280;36217;60.232;24.776;2023-02-16T09:47:27;101191.23;;;1.61;100.00
49779;BME280;36217;60.232;24.776;2023-02-16T09:50:12;101191.22;;;1.61;100.00
49779;BME280;36217;60.232;24.776;2023-02-16T09:52:54;101186.57;;;1.86;100.00
49779;BME280;36217;60.232;24.776;2023-02-16T09:55:37;101186.36;;;1.61;100.00
49779;BME280;36217;60.232;24.776;2023-02-16T09:58:19;101182.82;;;1.66;100.00
49779;BME280;36217;60.232;24.776;2023-02-16T10:01:01;101179.92;;;1.71;100.00
49779;BME280;36217;60.232;24.776;2023-02-16T10:03:53;101179.36;;;1.64;100.00
49779;BME280;36217;60.232;24.776;2023-02-16T10:06:43;101181.22;;;2.11;100.00
49779;BME280;36217;60.232;24.776;2023-02-16T10:09:24;101174.95;;;2.05;100.00
49779;BME280;36217;60.232;24.776;2023-02-16T10:12:07;101171.26;;;1.55;100.00
49779;BME280;36217;60.232;24.776;2023-02-16T10:14:47;101166.25;;;1.78;100.00
49779;BME280;36217;60.232;24.776;2023-02-16T10:17:32;101165.95;;;1.76;100.00
49779;BME280;36217;60.232;24.776;2023-02-16T10:20:17;101162.01;;;1.61;100.00
49779;BME280;36217;60.232;24.776;2023-02-16T10:23:00;101161.63;;;1.58;100.00
49779;BME280;36217;60.232;24.776;2023-02-16T10:25:45;101161.11;;;1.53;100.00
49779;BME280;36217;60.232;24.776;2023-02-16T10:28:41;101157.14;;;2.02;100.00
49779;BME280;36217;60.232;24.776;2023-02-16T10:31:26;101158.80;;;1.86;100.00
49779;BME280;36217;60.232;24.776;2023-02-16T10:34:19;101156.41;;;1.95;100.00
49779;BME280;36217;60.232;24.776;2023-02-16T10:37:10;101152.74;;;1.96;100.00
49779;BME280;36217;60.232;24.776;2023-02-16T10:39:58;101154.45;;;1.82;100.00
49779;BME280;36217;60.232;24.776;2023-02-16T10:42:44;101150.74;;;1.81;100.00
49779;BME280;36217;60.232;24.776;2023-02-16T10:45:28;101147.70;;;1.73;100.00
49779;BME280;36217;60.232;24.776;2023-02-16T10:48:07;101145.28;;;1.70;100.00
49779;BME280;36217;60.232;24.776;2023-02-16T10:50:48;101146.90;;;1.59;100.00
49779;BME280;36217;60.232;24.776;2023-02-16T10:53:38;101146.80;;;1.93;100.00
49779;BME280;36217;60.232;24.776;2023-02-16T10:56:42;101145.96;;;1.66;100.00
49779;BME280;36217;60.232;24.776;2023-02-16T10:59:23;101145.48;;;2.13;100.00
49779;BME280;36217;60.232;24.776;2023-02-16T11:02:02;101147.81;;;1.87;100.00
49779;BME280;36217;60.232;24.776;2023-02-16T11:04:42;101148.11;;;1.61;100.00
49779;BME280;36217;60.232;24.776;2023-02-16T11:07:21;101141.36;;;1.72;100.00
49779;BME280;36217;60.232;24.776;2023-02-16T11:10:00;101135.27;;;1.78;100.00
49779;BME280;36217;60.232;24.776;2023-02-16T11:12:58;101139.42;;;1.68;100.00
49779;BME280;36217;60.232;24.776;2023-02-16T11:15:35;101140.63;;;1.64;100.00
49779;BME280;36217;60.232;24.776;2023-02-16T11:18:28;101135.43;;;1.72;100.00
49779;BME280;36217;60.232;24.776;2023-02-16T11:21:16;101137.72;;;1.88;100.00
49779;BME280;36217;60.232;24.776;2023-02-16T11:24:02;101133.06;;;1.71;100.00
49779;BME280;36217;60.232;24.776;2023-02-16T11:26:39;101125.61;;;1.93;100.00
49779;BME280;36217;60.232;24.776;2023-02-16T11:29:22;101128.21;;;1.92;100.00
49779;BME280;36217;60.232;24.776;2023-02-16T11:32:04;101126.25;;;1.73;100.00
49779;BME280;36217;60.232;24.776;2023-02-16T11:34:44;101120.19;;;1.64;100.00
49779;BME280;36217;60.232;24.776;2023-02-16T11:37:29;101113.49;;;1.63;100.00
49779;BME280;36217;60.232;24.776;2023-02-16T11:40:17;101116.14;;;1.70;100.00
49779;BME280;36217;60.232;24.776;2023-02-16T11:42:56;101108.13;;;1.85;100.00
49779;BME280;36217;60.232;24.776;2023-02-16T11:45:36;101111.75;;;1.70;100.00
49779;BME280;36217;60.232;24.776;2023-02-16T11:48:23;101113.13;;;1.89;100.00
49779;BME280;36217;60.232;24.776;2023-02-16T11:51:03;101110.67;;;1.95;100.00
49779;BME280;36217;60.232;24.776;2023-02-16T11:53:42;101105.38;;;1.98;100.00
49779;BME280;36217;60.232;24.776;2023-02-16T11:56:27;101094.08;;;1.84;100.00
49779;BME280;36217;60.232;24.776;2023-02-16T11:59:13;101090.13;;;1.73;100.00
49779;BME280;36217;60.232;24.776;2023-02-16T12:02:26;101088.32;;;1.79;100.00
49779;BME280;36217;60.232;24.776;2023-02-16T12:05:23;101089.74;;;1.78;100.00
49779;BME280;36217;60.232;24.776;2023-02-16T12:08:13;101087.90;;;1.88;100.00
49779;BME280;36217;60.232;24.776;2023-02-16T12:11:06;101084.21;;;2.17;100.00
49779;BME280;36217;60.232;24.776;2023-02-16T12:13:50;101080.53;;;1.83;100.00
49779;BME280;36217;60.232;24.776;2023-02-16T12:16:34;101074.45;;;1.87;100.00
49779;BME280;36217;60.232;24.776;2023-02-16T12:19:32;101074.33;;;1.83;100.00
49779;BME280;36217;60.232;24.776;2023-02-16T12:22:22;101071.63;;;1.82;100.00
49779;BME280;36217;60.232;24.776;2023-02-16T12:25:20;101070.73;;;1.99;100.00
49779;BME280;36217;60.232;24.776;2023-02-16T12:28:07;101066.40;;;1.80;100.00
49779;BME280;36217;60.232;24.776;2023-02-16T12:30:57;101064.12;;;1.84;100.00
49779;BME280;36217;60.232;24.776;2023-02-16T12:33:44;101058.57;;;1.98;100.00
49779;BME280;36217;60.232;24.776;2023-02-16T12:36:32;101059.73;;;2.23;100.00
49779;BME280;36217;60.232;24.776;2023-02-16T12:39:17;101061.86;;;1.97;100.00
49779;BME280;36217;60.232;24.776;2023-02-16T12:42:08;101061.37;;;1.74;100.00
49779;BME280;36217;60.232;24.776;2023-02-16T12:44:51;101055.25;;;1.55;100.00
49779;BME280;36217;60.232;24.776;2023-02-16T12:47:33;101049.27;;;1.89;100.00
49779;BME280;36217;60.232;24.776;2023-02-16T12:50:20;101045.33;;;1.91;100.00
49779;BME280;36217;60.232;24.776;2023-02-16T12:53:00;101043.60;;;2.01;100.00
49779;BME280;36217;60.232;24.776;2023-02-16T12:55:43;101042.13;;;1.90;100.00
49779;BME280;36217;60.232;24.776;2023-02-16T12:58:24;101040.78;;;1.92;100.00
49779;BME280;36217;60.232;24.776;2023-02-16T13:01:03;101032.91;;;2.15;100.00
49779;BME280;36217;60.232;24.776;2023-02-16T13:03:44;101033.02;;;1.77;100.00
49779;BME280;36217;60.232;24.776;2023-02-16T13:06:28;101027.54;;;1.94;100.00
49779;BME280;36217;60.232;24.776;2023-02-16T13:09:18;101026.05;;;2.42;100.00
49779;BME280;36217;60.232;24.776;2023-02-16T13:12:04;101021.89;;;1.86;100.00
49779;BME280;36217;60.232;24.776;2023-02-16T13:14:46;101021.58;;;1.78;100.00
49779;BME280;36217;60.232;24.776;2023-02-16T13:17:30;101016.03;;;1.94;100.00
49779;BME280;36217;60.232;24.776;2023-02-16T13:20:20;101008.01;;;1.52;100.00
49779;BME280;36217;60.232;24.776;2023-02-16T13:23:57;101006.15;;;1.86;100.00
49779;BME280;36217;60.232;24.776;2023-02-16T13:26:48;101005.62;;;1.99;100.00
49779;BME280;36217;60.232;24.776;2023-02-16T13:29:48;101006.49;;;1.71;100.00
49779;BME280;36217;60.232;24.776;2023-02-16T13:32:42;101001.14;;;1.80;100.00
49779;BME280;36217;60.232;24.776;2023-02-16T13:35:35;101001.02;;;2.08;100.00
49779;BME280;36217;60.232;24.776;2023-02-16T13:38:35;101000.11;;;1.70;100.00
49779;BME280;36217;60.232;24.776;2023-02-16T13:41:32;100997.58;;;1.79;100.00
49779;BME280;36217;60.232;24.776;2023-02-16T13:44:14;100995.85;;;1.81;100.00
49779;BME280;36217;60.232;24.776;2023-02-16T13:46:53;101000.20;;;1.60;100.00
49779;BME280;36217;60.232;24.776;2023-02-16T13:49:34;100994.68;;;1.66;100.00
49779;BME280;36217;60.232;24.776;2023-02-16T13:52:25;100993.84;;;1.70;100.00
49779;BME280;36217;60.232;24.776;2023-02-16T13:55:06;100992.49;;;1.82;100.00